createdAt,value
2018-08-25T14:05:24.556Z,2.33
2018-08-25T14:07:53.858Z,2.30
2018-08-25T14:10:25.856Z,1.87
2018-08-25T14:13:10.433Z,1.70
2018-08-25T14:15:51.710Z,2.10
2018-08-25T14:18:20.493Z,1.77
2018-08-25T14:20:51.745Z,1.80
2018-08-25T14:23:22.806Z,1.90
2018-08-25T14:26:02.923Z,2.10
2018-08-25T14:28:31.798Z,1.70
2018-08-25T14:31:29.051Z,1.60
2018-08-25T14:34:02.223Z,1.77
2018-08-25T14:36:32.098Z,1.90
2018-08-25T14:39:01.903Z,1.70
2018-08-25T14:41:31.104Z,1.70
2018-08-25T14:44:12.667Z,1.70
2018-08-25T14:46:42.331Z,2.10
2018-08-25T14:49:11.296Z,1.57
2018-08-25T14:51:54.106Z,1.60
2018-08-25T14:54:23.177Z,1.77
2018-08-25T14:57:01.273Z,1.60
2018-08-25T14:59:31.348Z,2.03
2018-08-25T15:02:04.868Z,1.30
2018-08-25T15:04:52.427Z,1.47
2018-08-25T15:07:21.824Z,1.63
2018-08-25T15:09:51.056Z,1.00
2018-08-25T15:12:21.333Z,1.43
2018-08-25T15:14:50.160Z,1.40
2018-08-25T15:17:19.282Z,1.63
2018-08-25T15:19:51.223Z,1.60
2018-08-25T15:22:20.078Z,1.40
2018-08-25T15:24:48.787Z,1.43
2018-08-25T15:27:18.765Z,1.40
2018-08-25T15:29:48.401Z,1.40
2018-08-25T15:32:17.103Z,1.37
2018-08-25T15:34:46.729Z,1.50
2018-08-25T15:37:15.439Z,1.57
2018-08-25T15:39:44.294Z,2.23
2018-08-25T15:42:13.540Z,4.20
2018-08-25T15:44:42.487Z,4.90
2018-08-25T15:47:11.236Z,5.60
2018-08-25T15:49:40.082Z,5.63
2018-08-25T15:52:09.547Z,7.40
2018-08-25T15:54:38.512Z,7.13
2018-08-25T15:57:07.553Z,7.90
2018-08-25T15:59:37.292Z,7.40
2018-08-25T16:02:06.158Z,6.80
2018-08-25T16:04:35.817Z,7.53
2018-08-25T16:07:04.781Z,7.23
2018-08-25T16:09:33.919Z,7.17
2018-08-25T16:12:02.839Z,6.00
2018-08-25T16:14:31.531Z,7.10
2018-08-25T16:17:00.359Z,7.07
2018-08-25T16:19:29.474Z,5.80
2018-08-25T16:21:58.172Z,5.10
2018-08-25T16:24:26.923Z,5.60
2018-08-25T16:26:55.741Z,4.83
2018-08-25T16:29:24.877Z,5.30
2018-08-25T16:31:55.307Z,4.47
2018-08-25T16:34:24.574Z,4.00
2018-08-25T16:36:53.285Z,4.63
2018-08-25T16:39:22.187Z,4.80
2018-08-25T16:41:51.067Z,4.53
2018-08-25T16:44:19.934Z,4.40
2018-08-25T16:46:49.014Z,4.57
2018-08-25T16:49:17.870Z,3.87
2018-08-25T16:51:46.625Z,4.10
2018-08-25T16:54:15.689Z,4.50
2018-08-25T16:56:45.030Z,4.23
2018-08-25T16:59:14.266Z,4.13
2018-08-25T17:01:43.907Z,4.20
2018-08-25T17:04:12.875Z,3.97
2018-08-25T17:06:42.034Z,3.50
2018-08-25T17:09:11.396Z,4.13
2018-08-25T17:11:41.344Z,4.10
2018-08-25T17:14:10.116Z,4.27
2018-08-25T17:16:39.592Z,4.37
2018-08-25T17:19:08.472Z,4.10
2018-08-25T17:21:37.815Z,3.67
2018-08-25T17:24:06.678Z,4.17
2018-08-25T17:26:35.616Z,3.87
2018-08-25T17:29:04.419Z,3.57
2018-08-25T17:31:33.144Z,3.77
2018-08-25T17:34:02.488Z,3.57
2018-08-25T17:36:31.405Z,3.70
2018-08-25T17:39:00.283Z,3.40
2018-08-25T17:41:29.089Z,3.57
2018-08-25T17:43:58.049Z,3.70
2018-08-25T17:46:26.758Z,3.33
2018-08-25T17:48:56.550Z,3.40
2018-08-25T17:51:25.338Z,3.80
2018-08-25T17:53:54.970Z,3.60
2018-08-25T17:56:24.202Z,3.47
2018-08-25T17:58:52.969Z,3.27
2018-08-25T18:01:21.895Z,3.60
2018-08-25T18:03:50.979Z,3.10
2018-08-25T18:06:19.692Z,3.07
2018-08-25T18:08:48.998Z,2.80
2018-08-25T18:11:17.834Z,3.30
2018-08-25T18:13:47.140Z,2.93
2018-08-25T18:16:16.051Z,3.37
2018-08-25T18:18:44.786Z,2.80
2018-08-25T18:21:14.218Z,3.10
2018-08-25T18:23:43.607Z,2.73
2018-08-25T18:26:12.794Z,2.97
2018-08-25T18:28:41.942Z,3.23
2018-08-25T18:31:10.795Z,3.00
2018-08-25T18:33:39.500Z,2.90
2018-08-25T18:36:09.014Z,2.93
2018-08-25T18:38:38.986Z,2.50
2018-08-25T18:41:07.715Z,2.90
2018-08-25T18:43:36.470Z,2.47
2018-08-25T18:46:05.180Z,2.50
2018-08-25T18:48:33.992Z,2.47
2018-08-25T18:51:03.326Z,2.70
2018-08-25T18:53:32.079Z,2.90
2018-08-25T18:56:00.920Z,2.50
2018-08-25T18:58:30.660Z,3.17
2018-08-25T19:00:59.712Z,2.50
2018-08-25T19:03:28.781Z,3.10
2018-08-25T19:05:57.555Z,2.60
2018-08-25T19:08:27.231Z,3.10
2018-08-25T19:10:55.983Z,3.00
2018-08-25T19:13:24.736Z,2.17
2018-08-25T19:15:53.806Z,3.07
2018-08-25T19:18:22.672Z,2.80
2018-08-25T19:20:51.398Z,2.80
2018-08-25T19:23:20.267Z,2.40
2018-08-25T19:25:49.345Z,2.50
2018-08-25T19:28:18.444Z,2.33
2018-08-25T19:30:47.209Z,2.70
2018-08-25T19:33:16.039Z,2.37
2018-08-25T19:35:44.755Z,2.80
2018-08-25T19:38:13.607Z,2.30
2018-08-25T19:40:42.509Z,2.70
2018-08-25T19:43:11.222Z,2.30
2018-08-25T19:45:39.988Z,2.60
2018-08-25T19:48:09.005Z,2.00
2018-08-25T19:50:37.937Z,2.60
2018-08-25T19:53:07.421Z,2.07
2018-08-25T19:55:36.417Z,2.40
2018-08-25T19:58:05.149Z,2.23
2018-08-25T20:00:34.011Z,2.00
2018-08-25T20:03:02.913Z,2.50
2018-08-25T20:05:31.940Z,2.57
2018-08-25T20:08:00.584Z,2.17
2018-08-25T20:10:29.563Z,2.80
2018-08-25T20:12:58.590Z,2.20
2018-08-25T20:15:27.338Z,2.40
2018-08-25T20:17:56.114Z,2.00
2018-08-25T20:20:26.346Z,1.90
2018-08-25T20:22:55.150Z,2.70
2018-08-25T20:25:24.024Z,2.27
2018-08-25T20:27:52.776Z,2.10
2018-08-25T20:30:21.656Z,2.10
2018-08-25T20:32:50.818Z,3.23
2018-08-25T20:35:19.653Z,2.00
2018-08-25T20:37:48.489Z,2.07
2018-08-25T20:40:18.497Z,2.10
2018-08-25T20:42:48.124Z,2.10
2018-08-25T20:45:17.197Z,2.40
2018-08-25T20:47:45.948Z,1.73
2018-08-25T20:50:15.272Z,1.80
2018-08-25T20:52:44.079Z,2.47
2018-08-25T20:55:12.983Z,1.80
2018-08-25T20:57:41.770Z,1.97
2018-08-25T21:00:10.524Z,2.13
2018-08-25T21:02:40.127Z,2.20
2018-08-25T21:05:09.141Z,1.73
2018-08-25T21:07:38.449Z,2.00
2018-08-25T21:10:07.782Z,2.40
2018-08-25T21:12:36.614Z,2.37
2018-08-25T21:15:06.318Z,2.08
2018-08-25T21:17:35.053Z,2.53
2018-08-25T21:20:03.760Z,1.90
2018-08-25T21:22:32.486Z,1.93
2018-08-25T21:25:01.290Z,1.90
2018-08-25T21:27:30.150Z,2.20
2018-08-25T21:29:58.874Z,2.00
2018-08-25T21:32:27.598Z,2.33
2018-08-25T21:34:56.302Z,2.13
2018-08-25T21:37:26.169Z,2.43
2018-08-25T21:39:55.618Z,1.80
2018-08-25T21:42:24.366Z,1.77
2018-08-25T21:44:53.060Z,1.90
2018-08-25T21:47:22.154Z,2.50
2018-08-25T21:49:50.824Z,2.10
2018-08-25T21:52:19.612Z,1.63
2018-08-25T21:54:48.333Z,1.30
2018-08-25T21:57:17.076Z,1.73
2018-08-25T21:59:46.539Z,1.47
2018-08-25T22:02:17.898Z,1.83
2018-08-25T22:04:46.980Z,2.90
2018-08-25T22:07:15.749Z,2.13
2018-08-25T22:09:44.807Z,1.50
2018-08-25T22:12:13.488Z,2.33
2018-08-25T22:14:42.192Z,1.47
2018-08-25T22:17:11.856Z,2.03
2018-08-25T22:19:40.624Z,1.90
2018-08-25T22:22:09.406Z,1.63
2018-08-25T22:24:39.118Z,2.17
2018-08-25T22:27:07.867Z,1.57
2018-08-25T22:29:36.554Z,1.70
2018-08-25T22:32:05.479Z,1.70
2018-08-25T22:34:34.144Z,1.90
2018-08-25T22:37:02.953Z,1.70
2018-08-25T22:39:31.712Z,1.83
2018-08-25T22:42:00.415Z,1.70
2018-08-25T22:44:29.203Z,1.83
2018-08-25T22:46:57.911Z,1.67
2018-08-25T22:49:26.786Z,1.73
2018-08-25T22:51:56.255Z,1.43
2018-08-25T22:54:25.003Z,1.87
2018-08-25T22:56:53.725Z,1.67
2018-08-25T22:59:22.637Z,1.63
2018-08-25T23:01:51.451Z,1.50
2018-08-25T23:04:20.143Z,1.80
2018-08-25T23:06:49.495Z,1.87
2018-08-25T23:09:18.341Z,1.83
2018-08-25T23:11:47.019Z,1.40
2018-08-25T23:14:15.705Z,1.80
2018-08-25T23:16:44.431Z,1.50
2018-08-25T23:19:13.282Z,1.40
2018-08-25T23:21:41.979Z,1.47
2018-08-25T23:24:10.735Z,1.80
2018-08-25T23:26:39.535Z,1.80
2018-08-25T23:29:08.426Z,1.60
2018-08-25T23:31:37.091Z,1.47
2018-08-25T23:34:05.819Z,2.00
2018-08-25T23:36:34.546Z,1.60
2018-08-25T23:39:04.301Z,1.47
2018-08-25T23:41:33.947Z,1.57
2018-08-25T23:44:02.803Z,1.57
2018-08-25T23:46:31.888Z,1.70
2018-08-25T23:49:00.632Z,1.60
2018-08-25T23:51:29.462Z,1.80
2018-08-25T23:53:59.623Z,1.30
2018-08-25T23:56:28.448Z,1.10
2018-08-25T23:58:58.223Z,1.50
